createdAt,value
2017-10-20T00:00:41.941Z,26.43
2017-10-20T00:03:09.610Z,23.47
2017-10-20T00:05:37.203Z,19.47
2017-10-20T00:08:04.826Z,22.77
2017-10-20T00:10:32.425Z,23.07
2017-10-20T00:13:00.038Z,21.73
2017-10-20T00:15:27.591Z,23.70
2017-10-20T00:17:55.170Z,23.00
2017-10-20T00:20:22.754Z,24.47
2017-10-20T00:22:50.337Z,20.47
2017-10-20T00:25:17.913Z,21.00
2017-10-20T00:27:45.542Z,21.90
2017-10-20T00:30:13.125Z,22.27
2017-10-20T00:32:40.685Z,21.80
2017-10-20T00:35:08.283Z,23.20
2017-10-20T00:37:35.896Z,19.70
2017-10-20T00:40:03.511Z,24.90
2017-10-20T00:42:31.086Z,23.43
2017-10-20T00:44:58.647Z,22.33
2017-10-20T00:47:26.221Z,20.90
2017-10-20T00:49:53.797Z,21.10
2017-10-20T00:52:21.549Z,18.13
2017-10-20T00:54:49.165Z,20.73
2017-10-20T00:57:16.753Z,20.70
2017-10-20T00:59:44.357Z,20.27
2017-10-20T01:02:11.976Z,20.07
2017-10-20T01:04:39.539Z,17.50
2017-10-20T01:07:07.215Z,16.70
2017-10-20T01:09:34.828Z,16.20
2017-10-20T01:12:02.404Z,16.93
2017-10-20T01:14:29.962Z,16.37
2017-10-20T01:16:57.560Z,17.47
2017-10-20T01:19:25.133Z,18.57
2017-10-20T01:21:52.704Z,19.63
2017-10-20T01:24:20.268Z,17.53
2017-10-20T01:26:47.841Z,17.17
2017-10-20T01:29:15.511Z,17.37
2017-10-20T01:31:43.082Z,18.50
2017-10-20T01:34:10.729Z,16.10
2017-10-20T01:36:38.339Z,18.67
2017-10-20T01:39:06.070Z,18.40
2017-10-20T01:41:33.640Z,17.00
2017-10-20T01:44:01.368Z,17.60
2017-10-20T01:46:28.919Z,16.43
2017-10-20T01:48:56.491Z,17.57
2017-10-20T01:51:24.095Z,18.17
2017-10-20T01:53:52.079Z,16.10
2017-10-20T01:56:20.040Z,19.47
2017-10-20T01:58:47.825Z,18.53
2017-10-20T02:01:15.587Z,16.90
2017-10-20T02:03:43.178Z,16.07
2017-10-20T02:06:10.763Z,16.10
2017-10-20T02:08:38.325Z,17.93
2017-10-20T02:11:05.899Z,17.47
2017-10-20T02:13:33.657Z,18.53
2017-10-20T02:16:02.298Z,19.17
2017-10-20T02:18:29.865Z,18.27
2017-10-20T02:20:57.602Z,16.70
2017-10-20T02:23:25.168Z,17.30
2017-10-20T02:25:52.729Z,16.63
2017-10-20T02:28:20.431Z,17.17
2017-10-20T02:30:47.997Z,18.57
2017-10-20T02:33:16.983Z,18.13
2017-10-20T02:35:44.644Z,17.17
2017-10-20T02:38:12.211Z,16.00
2017-10-20T02:40:39.770Z,15.97
2017-10-20T02:43:07.909Z,16.50
2017-10-20T02:45:35.603Z,17.93
2017-10-20T02:48:03.169Z,17.90
2017-10-20T02:50:30.753Z,19.13
2017-10-20T02:52:58.322Z,18.87
2017-10-20T02:55:25.914Z,22.17
2017-10-20T02:57:53.486Z,17.00
2017-10-20T03:00:21.087Z,19.37
2017-10-20T03:02:48.686Z,18.13
2017-10-20T03:05:16.303Z,18.77
2017-10-20T03:07:43.875Z,20.63
2017-10-20T03:10:11.829Z,20.70
2017-10-20T03:12:39.406Z,23.30
2017-10-20T03:15:07.005Z,21.83
2017-10-20T03:17:34.563Z,20.43
2017-10-20T03:20:02.187Z,20.00
2017-10-20T03:22:29.802Z,20.30
2017-10-20T03:24:57.369Z,19.40
2017-10-20T03:27:25.445Z,22.10
2017-10-20T03:29:53.018Z,25.00
2017-10-20T03:32:20.809Z,21.10
2017-10-20T03:34:48.375Z,26.50
2017-10-20T03:37:15.927Z,24.33
2017-10-20T03:39:45.251Z,25.07
2017-10-20T03:42:12.830Z,26.13
2017-10-20T03:44:40.347Z,29.07
2017-10-20T03:47:08.045Z,30.90
2017-10-20T03:49:35.628Z,37.93
2017-10-20T03:52:03.218Z,38.97
2017-10-20T03:54:30.768Z,34.93
2017-10-20T03:56:58.485Z,37.87
2017-10-20T03:59:26.045Z,37.13
2017-10-20T04:01:53.953Z,35.57
2017-10-20T04:04:21.623Z,31.20
2017-10-20T04:06:49.223Z,27.43
2017-10-20T04:09:16.782Z,23.87
2017-10-20T04:11:44.367Z,25.13
2017-10-20T04:14:11.981Z,23.83
2017-10-20T04:16:39.609Z,24.83
2017-10-20T04:19:07.225Z,21.60
2017-10-20T04:21:35.684Z,18.73
2017-10-20T04:24:03.244Z,19.30
2017-10-20T04:26:30.833Z,18.77
2017-10-20T04:28:58.435Z,15.43
2017-10-20T04:31:26.908Z,16.73
2017-10-20T04:33:54.494Z,17.30
2017-10-20T04:36:22.590Z,16.50
2017-10-20T04:38:50.206Z,20.03
2017-10-20T04:41:17.777Z,19.70
2017-10-20T04:43:45.341Z,21.53
2017-10-20T04:46:12.922Z,21.20
2017-10-20T04:48:40.463Z,25.80
2017-10-20T04:51:08.039Z,24.70
2017-10-20T04:53:35.623Z,23.97
2017-10-20T04:56:03.189Z,26.97
2017-10-20T04:58:30.785Z,25.63
2017-10-20T05:00:58.344Z,23.60
2017-10-20T05:03:26.421Z,21.97
2017-10-20T05:05:54.095Z,27.60
2017-10-20T05:08:21.658Z,26.63
2017-10-20T05:10:49.228Z,25.47
2017-10-20T05:13:16.809Z,26.03
2017-10-20T05:15:44.375Z,26.63
2017-10-20T05:18:11.931Z,24.93
2017-10-20T05:20:39.501Z,27.20
2017-10-20T05:23:07.078Z,27.13
2017-10-20T05:25:34.645Z,28.20
2017-10-20T05:28:02.262Z,32.30
2017-10-20T05:30:30.322Z,32.63
2017-10-20T05:32:57.928Z,33.80
2017-10-20T05:35:25.508Z,31.77
2017-10-20T05:37:53.103Z,33.27
2017-10-20T05:40:20.819Z,32.90
2017-10-20T05:42:49.228Z,33.87
2017-10-20T05:45:16.801Z,34.47
2017-10-20T05:47:44.372Z,33.83
2017-10-20T05:50:11.951Z,33.77
2017-10-20T05:52:39.559Z,32.47
2017-10-20T05:55:07.144Z,28.47
2017-10-20T05:57:34.709Z,30.67
2017-10-20T06:00:02.328Z,27.00
2017-10-20T06:02:29.909Z,29.67
2017-10-20T06:04:57.530Z,28.90
2017-10-20T06:07:25.112Z,25.90
2017-10-20T06:09:52.669Z,29.87
2017-10-20T06:12:20.306Z,29.73
2017-10-20T06:14:47.926Z,29.10
2017-10-20T06:17:15.504Z,24.03
2017-10-20T06:19:43.096Z,30.13
2017-10-20T06:22:10.662Z,25.10
2017-10-20T06:24:39.052Z,29.20
2017-10-20T06:27:06.685Z,27.93
2017-10-20T06:29:34.690Z,25.73
2017-10-20T06:32:03.660Z,27.50
2017-10-20T06:34:31.505Z,27.97
2017-10-20T06:36:59.043Z,34.53
2017-10-20T06:39:26.676Z,32.93
2017-10-20T06:41:55.019Z,35.80
2017-10-20T06:44:22.600Z,34.77
2017-10-20T06:46:50.190Z,31.50
2017-10-20T06:49:17.929Z,34.37
2017-10-20T06:51:45.501Z,28.33
2017-10-20T06:54:13.137Z,23.77
2017-10-20T06:56:40.722Z,26.47
2017-10-20T06:59:08.287Z,31.20
2017-10-20T07:01:35.921Z,31.80
2017-10-20T07:04:03.468Z,34.07
2017-10-20T07:06:31.078Z,34.90
2017-10-20T07:08:58.671Z,36.27
2017-10-20T07:11:26.335Z,46.23
2017-10-20T07:13:54.010Z,56.17
2017-10-20T07:16:22.625Z,32.87
2017-10-20T07:21:51.328Z,35.63
2017-10-20T07:24:18.874Z,33.80
2017-10-20T07:26:48.567Z,31.53
2017-10-20T07:29:16.182Z,32.00
2017-10-20T07:31:43.741Z,37.03
2017-10-20T07:34:11.294Z,39.80
2017-10-20T07:36:38.842Z,35.10
2017-10-20T07:39:06.511Z,34.67
2017-10-20T07:41:34.065Z,36.57
2017-10-20T07:44:01.639Z,34.87
2017-10-20T07:46:29.253Z,34.17
2017-10-20T07:48:56.829Z,33.00
2017-10-20T07:51:24.423Z,33.23
2017-10-20T07:53:52.002Z,33.43
2017-10-20T07:56:19.604Z,36.27
2017-10-20T07:58:47.171Z,33.63
2017-10-20T08:01:14.862Z,37.37
2017-10-20T08:03:42.433Z,39.03
2017-10-20T08:06:10.103Z,37.13
2017-10-20T08:08:37.689Z,40.70
2017-10-20T08:11:05.294Z,41.97
2017-10-20T08:13:32.842Z,44.73
2017-10-20T08:16:00.460Z,43.00
2017-10-20T08:18:28.177Z,44.43
2017-10-20T08:20:55.733Z,44.07
2017-10-20T08:23:24.542Z,43.30
2017-10-20T08:25:52.166Z,64.33
2017-10-20T08:28:19.796Z,44.47
2017-10-20T08:30:47.379Z,45.80
2017-10-20T08:33:14.938Z,41.20
2017-10-20T08:35:42.555Z,39.13
2017-10-20T08:38:10.146Z,39.97
2017-10-20T08:40:37.708Z,40.27
2017-10-20T08:43:05.544Z,42.23
2017-10-20T08:45:33.104Z,44.43
2017-10-20T08:48:00.711Z,42.07
2017-10-20T08:50:28.435Z,40.53
2017-10-20T08:52:56.156Z,45.40
2017-10-20T08:55:23.754Z,44.17
2017-10-20T08:57:51.344Z,42.33
2017-10-20T09:00:19.008Z,42.60
2017-10-20T09:02:46.568Z,41.97
2017-10-20T09:05:14.142Z,42.53
2017-10-20T09:07:41.696Z,42.40
2017-10-20T09:10:09.274Z,41.43
2017-10-20T09:12:36.932Z,47.37
2017-10-20T09:15:04.557Z,45.80
2017-10-20T09:17:32.136Z,42.00
2017-10-20T09:19:59.705Z,40.30
2017-10-20T09:22:27.294Z,42.07
2017-10-20T09:24:54.872Z,43.70
2017-10-20T09:27:22.950Z,44.03
2017-10-20T09:29:50.523Z,42.63
2017-10-20T09:32:18.137Z,41.70
2017-10-20T09:34:45.738Z,43.43
2017-10-20T09:37:13.544Z,42.30
2017-10-20T09:39:41.096Z,42.00
2017-10-20T09:42:08.690Z,42.70
2017-10-20T09:44:36.254Z,37.40
2017-10-20T09:47:03.929Z,37.53
2017-10-20T09:49:31.670Z,38.13
2017-10-20T09:51:59.284Z,39.07
2017-10-20T09:54:26.966Z,41.67
2017-10-20T09:56:54.576Z,37.80
2017-10-20T09:59:22.238Z,39.50
2017-10-20T10:01:49.829Z,38.70
2017-10-20T10:04:17.506Z,36.63
2017-10-20T10:06:45.230Z,35.87
2017-10-20T10:09:13.829Z,35.10
2017-10-20T10:11:41.591Z,38.57
2017-10-20T10:14:09.220Z,37.57
2017-10-20T10:16:37.006Z,36.47
2017-10-20T10:19:04.595Z,33.70
2017-10-20T10:21:32.197Z,35.97
2017-10-20T10:23:59.835Z,39.40
2017-10-20T10:26:27.426Z,36.97
2017-10-20T10:28:54.988Z,39.53
2017-10-20T10:31:22.597Z,36.57
2017-10-20T10:33:50.238Z,35.40
2017-10-20T10:36:17.992Z,34.97
2017-10-20T10:38:45.660Z,35.90
2017-10-20T10:41:14.378Z,36.90
2017-10-20T10:43:41.952Z,34.40
2017-10-20T10:46:09.544Z,34.63
2017-10-20T10:48:38.513Z,37.70
2017-10-20T10:51:07.065Z,37.47
2017-10-20T10:53:35.589Z,34.50
2017-10-20T10:56:03.200Z,33.40
2017-10-20T10:58:30.851Z,35.60
2017-10-20T11:00:58.420Z,34.90
2017-10-20T11:03:26.292Z,37.10
2017-10-20T11:06:05.702Z,35.90
2017-10-20T11:08:44.966Z,33.70
2017-10-20T11:11:24.359Z,34.50
2017-10-20T11:13:51.978Z,34.00
2017-10-20T11:16:19.582Z,35.43
2017-10-20T11:18:47.172Z,32.17
2017-10-20T11:21:15.115Z,34.10
2017-10-20T11:23:42.746Z,33.47
2017-10-20T11:26:10.392Z,31.97
2017-10-20T11:28:37.988Z,31.40
2017-10-20T11:31:05.865Z,33.13
2017-10-20T11:33:33.526Z,34.17
2017-10-20T11:36:01.094Z,35.47
2017-10-20T11:38:28.712Z,34.43
2017-10-20T11:40:56.353Z,35.63
2017-10-20T11:43:24.948Z,32.33
2017-10-20T11:45:52.582Z,35.73
2017-10-20T11:48:20.317Z,35.10
2017-10-20T11:50:48.009Z,31.07
2017-10-20T11:53:16.256Z,31.53
2017-10-20T11:55:43.910Z,33.00
2017-10-20T11:58:11.523Z,32.87
2017-10-20T12:00:39.166Z,30.97
2017-10-20T12:03:06.818Z,32.00
2017-10-20T12:05:34.442Z,31.10
2017-10-20T12:08:02.025Z,31.93
2017-10-20T12:10:30.288Z,33.40
2017-10-20T12:12:58.078Z,34.83
2017-10-20T12:15:25.687Z,34.30
2017-10-20T12:17:53.302Z,32.10
2017-10-20T12:20:21.044Z,31.27
2017-10-20T12:22:48.618Z,33.77
2017-10-20T12:25:16.221Z,32.47
2017-10-20T12:27:43.802Z,31.87
2017-10-20T12:30:11.421Z,31.90
2017-10-20T12:32:39.009Z,35.07
2017-10-20T12:35:06.673Z,32.87
2017-10-20T12:37:34.297Z,36.27
2017-10-20T12:40:01.874Z,33.97
2017-10-20T12:42:29.445Z,31.10
2017-10-20T12:44:57.074Z,37.40
2017-10-20T12:47:24.986Z,36.63
2017-10-20T12:49:52.567Z,37.00
2017-10-20T12:52:21.153Z,34.43
2017-10-20T12:54:48.769Z,37.43
2017-10-20T12:57:16.316Z,37.80
2017-10-20T12:59:43.886Z,35.93
2017-10-20T13:02:11.466Z,39.40
2017-10-20T13:04:39.082Z,37.87
2017-10-20T13:07:06.794Z,34.37
2017-10-20T13:09:34.418Z,34.07
2017-10-20T13:12:02.002Z,35.03
2017-10-20T13:14:29.619Z,33.83
2017-10-20T13:16:57.186Z,35.43
2017-10-20T13:19:25.649Z,38.33
2017-10-20T13:21:53.258Z,36.30
2017-10-20T13:24:21.891Z,32.23
2017-10-20T13:26:49.492Z,35.57
2017-10-20T13:29:17.262Z,35.30
2017-10-20T13:31:44.907Z,35.17
2017-10-20T13:34:12.471Z,32.27
2017-10-20T13:36:40.067Z,32.40
2017-10-20T13:39:07.685Z,36.90
2017-10-20T13:41:35.290Z,34.00
2017-10-20T13:44:02.891Z,34.30
2017-10-20T13:46:30.529Z,36.60
2017-10-20T13:48:58.109Z,35.57
2017-10-20T13:51:25.898Z,35.90
2017-10-20T13:53:53.585Z,35.70
2017-10-20T13:56:21.161Z,35.10
2017-10-20T13:58:48.721Z,35.63
2017-10-20T14:01:16.302Z,34.20
2017-10-20T14:03:44.053Z,37.10
2017-10-20T14:06:12.561Z,34.37
2017-10-20T14:08:40.099Z,64.03
2017-10-20T14:11:07.739Z,60.30
2017-10-20T14:13:35.557Z,43.90
2017-10-20T14:16:03.160Z,41.17
2017-10-20T14:18:30.886Z,40.37
2017-10-20T14:21:01.427Z,35.20
2017-10-20T14:23:29.308Z,37.93
2017-10-20T14:25:56.956Z,33.97
2017-10-20T14:28:24.576Z,34.07
2017-10-20T14:30:54.730Z,35.60
2017-10-20T14:33:22.343Z,33.53
2017-10-20T14:35:50.337Z,37.13
2017-10-20T14:38:17.984Z,34.17
2017-10-20T14:40:51.121Z,34.53
2017-10-20T14:43:18.836Z,35.50
2017-10-20T14:45:46.464Z,33.63
2017-10-20T14:48:14.114Z,36.70
2017-10-20T14:50:41.786Z,35.53
2017-10-20T14:53:11.125Z,38.53
2017-10-20T14:55:38.739Z,35.77
2017-10-20T14:58:06.295Z,36.37
2017-10-20T15:00:36.960Z,39.10
2017-10-20T15:03:05.067Z,41.00
2017-10-20T15:05:32.865Z,38.77
2017-10-20T15:08:00.457Z,39.00
2017-10-20T15:10:30.163Z,45.77
2017-10-20T15:12:57.790Z,42.47
2017-10-20T15:15:25.874Z,45.87
2017-10-20T15:17:53.448Z,39.37
2017-10-20T15:20:21.037Z,38.47
2017-10-20T15:22:48.673Z,38.00
2017-10-20T15:25:16.302Z,40.20
2017-10-20T15:27:43.881Z,41.33
2017-10-20T15:30:11.475Z,38.93
2017-10-20T15:32:39.041Z,42.27
2017-10-20T15:35:06.599Z,46.67
2017-10-20T15:37:34.183Z,46.83
2017-10-20T15:40:01.747Z,40.80
2017-10-20T15:42:29.321Z,62.17
2017-10-20T15:44:56.890Z,44.90
2017-10-20T15:47:24.468Z,46.50
2017-10-20T15:49:52.038Z,40.97
2017-10-20T15:52:19.686Z,42.83
2017-10-20T15:54:47.252Z,43.13
2017-10-20T15:57:15.072Z,48.07
2017-10-20T15:59:42.658Z,61.07
2017-10-20T16:02:10.319Z,43.73
2017-10-20T16:04:37.897Z,77.13
2017-10-20T16:07:05.652Z,49.87
2017-10-20T16:09:33.206Z,57.67
2017-10-20T16:12:00.935Z,52.37
2017-10-20T16:14:28.673Z,52.30
2017-10-20T16:16:56.254Z,52.30
2017-10-20T16:19:23.895Z,44.23
2017-10-20T16:21:51.490Z,47.30
2017-10-20T16:24:19.286Z,60.77
2017-10-20T16:26:47.045Z,78.10
2017-10-20T16:29:14.659Z,60.63
2017-10-20T16:31:42.325Z,55.90
2017-10-20T16:34:09.875Z,64.83
2017-10-20T16:36:37.485Z,72.20
2017-10-20T16:39:05.166Z,73.17
2017-10-20T16:41:32.775Z,62.23
2017-10-20T16:44:00.391Z,70.33
2017-10-20T16:46:27.986Z,69.33
2017-10-20T16:48:55.568Z,68.57
2017-10-20T16:51:23.176Z,51.67
2017-10-20T16:53:50.785Z,79.97
2017-10-20T16:56:18.387Z,74.07
2017-10-20T16:58:46.030Z,67.17
2017-10-20T17:01:13.582Z,66.80
2017-10-20T17:03:41.133Z,62.00
2017-10-20T17:06:08.708Z,80.53
2017-10-20T17:08:36.395Z,88.87
2017-10-20T17:11:03.976Z,90.87
2017-10-20T17:13:31.542Z,71.17
2017-10-20T17:15:59.111Z,79.40
2017-10-20T17:18:26.677Z,58.80
2017-10-20T17:23:45.488Z,72.83
2017-10-20T17:26:13.091Z,78.33
2017-10-20T17:28:40.644Z,85.90
2017-10-20T17:31:08.457Z,84.57
2017-10-20T17:33:36.369Z,73.67
2017-10-20T17:36:04.117Z,93.63
2017-10-20T17:38:31.740Z,77.80
2017-10-20T17:40:59.306Z,77.00
2017-10-20T17:43:26.927Z,72.77
2017-10-20T17:45:54.576Z,68.43
2017-10-20T17:48:22.232Z,66.70
2017-10-20T17:50:49.822Z,69.90
2017-10-20T17:53:17.389Z,63.77
2017-10-20T17:55:44.993Z,64.53
2017-10-20T17:58:12.578Z,66.23
2017-10-20T18:00:40.164Z,65.43
2017-10-20T18:03:09.628Z,73.43
2017-10-20T18:05:37.192Z,49.70
2017-10-20T18:08:04.775Z,46.10
2017-10-20T18:10:32.366Z,39.00
2017-10-20T18:12:59.943Z,36.60
2017-10-20T18:15:27.532Z,37.83
2017-10-20T18:17:55.392Z,40.63
2017-10-20T18:20:22.985Z,39.73
2017-10-20T18:22:50.617Z,40.10
2017-10-20T18:25:18.251Z,45.13
2017-10-20T18:27:45.840Z,48.00
2017-10-20T18:30:13.405Z,47.03
2017-10-20T18:32:41.027Z,62.87
2017-10-20T18:35:08.625Z,54.27
2017-10-20T18:37:36.210Z,59.53
2017-10-20T18:40:03.819Z,51.57
2017-10-20T18:42:31.405Z,43.70
2017-10-20T18:44:58.968Z,45.47
2017-10-20T18:47:26.567Z,38.63
2017-10-20T18:49:54.119Z,48.97
2017-10-20T18:52:21.818Z,47.40
2017-10-20T18:54:49.490Z,42.70
2017-10-20T18:57:17.061Z,53.23
2017-10-20T18:59:44.613Z,48.90
2017-10-20T19:02:12.223Z,44.30
2017-10-20T19:04:39.782Z,44.83
2017-10-20T19:07:07.385Z,47.03
2017-10-20T19:09:34.990Z,48.37
2017-10-20T19:12:02.555Z,48.77
2017-10-20T19:17:20.507Z,48.83
2017-10-20T19:19:48.077Z,53.27
2017-10-20T19:22:15.657Z,50.80
2017-10-20T19:24:43.210Z,47.87
2017-10-20T19:27:10.975Z,46.80
2017-10-20T19:29:38.540Z,42.57
2017-10-20T19:32:06.165Z,36.83
2017-10-20T19:34:33.741Z,43.57
2017-10-20T19:37:01.312Z,51.03
2017-10-20T19:39:28.894Z,31.23
2017-10-20T19:41:56.463Z,26.90
2017-10-20T19:44:24.054Z,20.60
2017-10-20T19:46:51.836Z,19.70
2017-10-20T19:49:19.433Z,20.90
2017-10-20T19:51:47.006Z,18.73
2017-10-20T19:54:14.643Z,18.13
2017-10-20T19:56:42.261Z,18.57
2017-10-20T19:59:09.815Z,17.93
2017-10-20T20:01:37.417Z,20.50
2017-10-20T20:04:05.215Z,24.50
2017-10-20T20:06:32.812Z,32.83
2017-10-20T20:09:00.441Z,31.90
2017-10-20T20:11:28.346Z,35.77
2017-10-20T20:13:55.901Z,39.53
2017-10-20T20:16:24.641Z,44.60
2017-10-20T20:18:52.246Z,41.30
2017-10-20T20:21:20.107Z,45.03
2017-10-20T20:23:47.918Z,31.73
2017-10-20T20:26:15.719Z,33.50
2017-10-20T20:28:43.346Z,27.30
2017-10-20T20:34:08.344Z,22.30
2017-10-20T20:36:48.017Z,21.50
2017-10-20T20:39:15.531Z,17.70
2017-10-20T20:41:43.171Z,17.20
2017-10-20T20:44:10.722Z,18.17
2017-10-20T20:46:38.247Z,18.77
2017-10-20T20:49:05.844Z,14.30
2017-10-20T20:51:33.463Z,14.87
2017-10-20T20:54:00.963Z,14.90
2017-10-20T20:56:28.466Z,15.43
2017-10-20T20:58:56.091Z,13.80
2017-10-20T21:01:23.612Z,12.57
2017-10-20T21:03:51.119Z,13.53
2017-10-20T21:06:18.645Z,15.47
2017-10-20T21:08:46.162Z,14.27
2017-10-20T21:11:13.711Z,13.60
2017-10-20T21:13:41.290Z,14.30
2017-10-20T21:16:10.301Z,16.73
2017-10-20T21:18:37.926Z,13.47
2017-10-20T21:21:05.640Z,14.27
2017-10-20T21:23:33.245Z,15.23
2017-10-20T21:26:00.817Z,13.80
2017-10-20T21:28:28.442Z,14.27
2017-10-20T21:30:56.029Z,14.83
2017-10-20T21:33:23.752Z,15.47
2017-10-20T21:35:51.306Z,18.20
2017-10-20T21:38:18.973Z,18.60
2017-10-20T21:40:46.554Z,17.80
2017-10-20T21:43:14.656Z,16.23
2017-10-20T21:45:42.250Z,15.87
2017-10-20T21:48:09.863Z,17.63
2017-10-20T21:50:37.425Z,14.30
2017-10-20T21:53:05.080Z,16.37
2017-10-20T21:55:32.656Z,14.60
2017-10-20T21:58:00.233Z,14.07
2017-10-20T22:00:27.810Z,15.03
2017-10-20T22:02:55.382Z,15.53
2017-10-20T22:05:23.049Z,16.57
2017-10-20T22:07:50.662Z,14.90
2017-10-20T22:10:18.258Z,16.53
2017-10-20T22:12:45.839Z,13.80
2017-10-20T22:15:13.423Z,14.07
2017-10-20T22:17:41.033Z,14.50
2017-10-20T22:20:08.649Z,15.20
2017-10-20T22:22:36.235Z,16.17
2017-10-20T22:25:03.813Z,13.50
2017-10-20T22:27:31.377Z,16.50
2017-10-20T22:29:59.135Z,17.53
2017-10-20T22:32:26.868Z,17.30
2017-10-20T22:34:54.464Z,18.60
2017-10-20T22:37:22.099Z,17.13
2017-10-20T22:39:49.651Z,15.80
2017-10-20T22:42:17.210Z,16.07
2017-10-20T22:44:44.776Z,15.67
2017-10-20T22:47:13.467Z,16.17
2017-10-20T22:49:41.032Z,16.13
2017-10-20T22:52:08.627Z,14.90
2017-10-20T22:54:36.230Z,12.50
2017-10-20T22:57:03.786Z,11.50
2017-10-20T22:59:31.360Z,13.80
2017-10-20T23:01:58.942Z,13.47
2017-10-20T23:04:26.540Z,14.77
2017-10-20T23:06:54.093Z,16.33
2017-10-20T23:09:22.019Z,15.07
2017-10-20T23:11:49.566Z,18.30
2017-10-20T23:14:17.178Z,20.17
2017-10-20T23:16:44.770Z,21.80
2017-10-20T23:19:12.529Z,24.17
2017-10-20T23:21:40.293Z,18.70
2017-10-20T23:24:07.885Z,18.27
2017-10-20T23:26:35.453Z,18.63
2017-10-20T23:29:03.109Z,19.13
2017-10-20T23:31:30.670Z,14.33
2017-10-20T23:33:58.236Z,15.70
2017-10-20T23:36:25.845Z,12.53
2017-10-20T23:38:53.409Z,12.53
2017-10-20T23:41:21.014Z,17.73
2017-10-20T23:43:48.606Z,16.67
2017-10-20T23:46:16.192Z,11.40
2017-10-20T23:48:43.761Z,9.93
2017-10-20T23:51:11.843Z,13.70
2017-10-20T23:53:39.410Z,15.20
2017-10-20T23:56:07.175Z,11.93
2017-10-20T23:58:34.782Z,13.20
